Time;durP1;ratioP1;P1;durP2;ratioP2;P2;SDS_P1;SDS_P2;PMS_P1;PMS_P2;Temp;Humidity;BMP_temperature;BMP_pressure;BME280_temperature;BME280_humidity;BME280_pressure;Samples;Min_cycle;Max_cycle;Signal;HPM_P1;HPM_P2
2022/06/27 00:02:01;;;;;;;5.67;2.33;;;19.00;99.90;;;;;;4971772;28;20399;-62
2022/06/27 00:04:27;;;;;;;4.87;2.00;;;19.00;99.90;;;;;;4971493;28;20471;-61
2022/06/27 00:06:52;;;;;;;4.80;1.60;;;19.10;99.90;;;;;;4972722;28;20388;-62
2022/06/27 00:09:18;;;;;;;5.00;1.40;;;19.10;99.90;;;;;;4971836;28;20424;-59
2022/06/27 00:11:44;;;;;;;5.30;1.50;;;19.10;99.90;;;;;;4971129;28;20465;-62
2022/06/27 00:14:10;;;;;;;5.90;1.20;;;19.00;99.90;;;;;;4971692;28;20921;-62
2022/06/27 00:16:36;;;;;;;6.90;1.23;;;18.90;99.90;;;;;;4972965;28;20471;-62
2022/06/27 00:19:02;;;;;;;4.43;0.90;;;18.90;99.90;;;;;;4971844;28;20508;-61
2022/06/27 00:21:27;;;;;;;4.38;1.00;;;18.90;99.90;;;;;;4972088;28;20411;-61
2022/06/27 00:23:53;;;;;;;5.40;0.90;;;18.90;99.90;;;;;;4972096;28;20476;-61
2022/06/27 00:26:18;;;;;;;4.50;1.30;;;18.90;98.80;;;;;;4961254;28;20955;-60
2022/06/27 00:28:44;;;;;;;4.40;0.80;;;18.80;99.90;;;;;;4970734;28;20428;-60
2022/06/27 00:31:10;;;;;;;6.82;0.80;;;18.70;99.90;;;;;;4971933;28;20912;-62
2022/06/27 00:33:35;;;;;;;4.63;0.88;;;18.70;99.90;;;;;;4970295;28;20455;-61
2022/06/27 00:36:01;;;;;;;5.10;0.90;;;18.50;99.90;;;;;;4971824;28;20800;-61
2022/06/27 00:38:26;;;;;;;4.47;1.00;;;18.20;99.90;;;;;;4970692;28;20419;-60
2022/06/27 00:40:52;;;;;;;6.60;1.10;;;18.00;99.90;;;;;;4971566;28;20403;-63
2022/06/27 00:43:18;;;;;;;4.50;1.40;;;17.80;99.90;;;;;;4971130;28;20502;-62
2022/06/27 00:45:43;;;;;;;5.68;1.25;;;17.60;99.90;;;;;;4963194;28;20553;-62
2022/06/27 00:48:09;;;;;;;6.70;1.80;;;17.50;99.90;;;;;;4968059;28;20430;-63
2022/06/27 00:50:35;;;;;;;4.60;1.20;;;17.40;99.90;;;;;;4972159;28;20414;-60
2022/06/27 00:53:01;;;;;;;6.20;1.40;;;17.30;99.90;;;;;;4971369;28;20411;-60
2022/06/27 00:55:26;;;;;;;6.87;1.50;;;17.20;99.90;;;;;;4971971;28;20908;-63
2022/06/27 00:57:53;;;;;;;5.40;1.10;;;17.30;99.90;;;;;;4972200;28;20846;-62
2022/06/27 01:00:19;;;;;;;7.13;1.23;;;17.40;99.90;;;;;;4970571;28;20427;-57
2022/06/27 01:02:44;;;;;;;5.10;1.30;;;17.50;99.90;;;;;;4970145;28;20439;-62
2022/06/27 01:05:13;;;;;;;4.40;0.93;;;17.60;99.90;;;;;;4971181;28;20400;-62
2022/06/27 01:07:39;;;;;;;5.50;1.10;;;17.70;99.90;;;;;;4972042;28;20507;-62
2022/06/27 01:10:07;;;;;;;5.70;1.42;;;17.90;99.90;;;;;;4971450;28;20388;-61
2022/06/27 01:12:33;;;;;;;3.85;0.88;;;18.00;99.90;;;;;;4971963;28;20416;-60
2022/06/27 01:15:00;;;;;;;4.60;1.00;;;18.10;99.90;;;;;;4971197;28;20492;-55
2022/06/27 01:17:26;;;;;;;4.03;1.10;;;18.10;99.90;;;;;;4971913;28;20888;-60
2022/06/27 01:19:52;;;;;;;4.43;1.00;;;18.00;99.90;;;;;;4971618;28;20404;-60
2022/06/27 01:22:18;;;;;;;6.00;1.00;;;18.10;99.90;;;;;;4971017;28;20634;-59
2022/06/27 01:24:44;;;;;;;4.30;1.00;;;18.10;99.90;;;;;;4966124;28;20392;-60
2022/06/27 01:27:10;;;;;;;4.27;0.90;;;18.10;99.90;;;;;;4970343;28;20458;-60
2022/06/27 01:29:36;;;;;;;4.20;1.20;;;18.00;99.90;;;;;;4969586;28;20494;-59
2022/06/27 01:32:03;;;;;;;4.55;1.00;;;18.00;99.90;;;;;;4970619;28;20392;-60
2022/06/27 01:34:29;;;;;;;5.93;1.67;;;18.10;99.90;;;;;;4970743;28;20449;-60
2022/06/27 01:36:55;;;;;;;5.78;1.25;;;18.20;99.90;;;;;;4971234;28;20404;-55
2022/06/27 01:39:25;;;;;;;4.82;1.30;;;18.10;99.90;;;;;;4971022;28;20498;-60
2022/06/27 01:41:53;;;;;;;4.80;1.20;;;18.00;99.90;;;;;;4971626;28;20471;-60
2022/06/27 01:44:21;;;;;;;7.50;1.20;;;18.00;99.90;;;;;;4970753;28;20400;-60
2022/06/27 01:46:49;;;;;;;4.38;1.00;;;18.00;99.90;;;;;;4971513;28;20411;-60
2022/06/27 01:49:16;;;;;;;4.80;1.08;;;18.00;99.90;;;;;;4969804;28;20432;-59
2022/06/27 01:51:44;;;;;;;4.03;1.20;;;18.00;99.90;;;;;;4971188;28;20396;-59
2022/06/27 01:54:12;;;;;;;5.38;1.20;;;17.90;99.90;;;;;;4970302;28;20400;-58
2022/06/27 01:56:38;;;;;;;4.10;1.05;;;17.80;99.90;;;;;;4970988;28;20483;-58
2022/06/27 01:59:04;;;;;;;4.37;1.10;;;17.80;99.90;;;;;;4968468;28;20415;-58
2022/06/27 02:01:31;;;;;;;4.65;1.20;;;17.80;99.90;;;;;;4970946;28;20399;-59
2022/06/27 02:03:59;;;;;;;5.03;1.33;;;17.90;99.90;;;;;;4970545;28;20491;-53
2022/06/27 02:06:25;;;;;;;4.97;1.10;;;17.90;99.90;;;;;;4971003;28;20427;-58
2022/06/27 02:08:52;;;;;;;5.63;1.02;;;17.90;99.90;;;;;;4970448;28;20425;-59
2022/06/27 02:11:19;;;;;;;5.30;1.40;;;18.10;99.90;;;;;;4968684;28;20531;-58
2022/06/27 02:13:45;;;;;;;4.72;1.42;;;18.20;99.90;;;;;;4971218;28;20861;-58
2022/06/27 02:16:14;;;;;;;4.60;1.20;;;18.20;99.90;;;;;;4970112;28;20404;-58
2022/06/27 02:18:41;;;;;;;4.25;1.10;;;18.20;99.90;;;;;;4968277;28;20412;-59
2022/06/27 02:21:10;;;;;;;4.80;1.10;;;18.30;99.90;;;;;;4970078;28;20933;-58
2022/06/27 02:23:36;;;;;;;6.32;1.30;;;18.20;99.90;;;;;;4970676;28;20814;-58
2022/06/27 02:26:02;;;;;;;5.30;1.40;;;18.00;99.90;;;;;;4970252;28;20471;-57
2022/06/27 02:28:28;;;;;;;6.10;1.35;;;17.90;99.90;;;;;;4968835;28;20416;-58
2022/06/27 02:30:55;;;;;;;5.60;1.50;;;17.90;99.90;;;;;;4970450;28;20435;-58
2022/06/27 02:33:21;;;;;;;5.70;1.60;;;17.90;99.90;;;;;;4969669;28;20947;-58
2022/06/27 02:35:49;;;;;;;7.32;2.20;;;17.80;99.90;;;;;;4970375;28;20435;-58
2022/06/27 02:38:16;;;;;;;5.00;1.98;;;17.70;99.90;;;;;;4969607;28;20412;-58
2022/06/27 02:40:44;;;;;;;6.53;1.77;;;17.70;99.90;;;;;;4970052;28;20396;-59
2022/06/27 02:43:13;;;;;;;6.57;1.83;;;17.70;99.90;;;;;;4969606;28;20483;-56
2022/06/27 02:45:40;;;;;;;4.45;1.50;;;17.60;99.90;;;;;;4969793;28;20873;-58
2022/06/27 02:48:07;;;;;;;6.38;1.67;;;17.60;99.90;;;;;;4959974;28;20429;-58
2022/06/27 02:50:38;;;;;;;5.00;1.65;;;17.60;99.90;;;;;;4970728;28;20438;-58
2022/06/27 02:53:09;;;;;;;5.53;1.77;;;17.70;99.90;;;;;;4969560;28;20396;-58
2022/06/27 02:55:39;;;;;;;6.43;1.80;;;17.70;99.90;;;;;;4969559;28;20403;-58
2022/06/27 02:58:18;;;;;;;5.40;2.00;;;17.70;99.90;;;;;;4967967;28;20400;-58
2022/06/27 03:00:46;;;;;;;5.10;1.90;;;17.70;99.90;;;;;;4970341;28;20459;-58
2022/06/27 03:03:15;;;;;;;5.53;1.80;;;17.70;99.90;;;;;;4966560;28;20447;-58
2022/06/27 03:06:02;;;;;;;5.70;1.83;;;17.70;99.90;;;;;;4969016;28;20396;-57
2022/06/27 03:08:57;;;;;;;4.75;1.80;;;17.60;99.90;;;;;;4967715;28;20447;-58
2022/06/27 03:11:24;;;;;;;6.20;2.10;;;17.60;99.90;;;;;;4951418;28;20408;-57
2022/06/27 03:13:52;;;;;;;6.28;2.08;;;17.60;99.90;;;;;;4968511;28;20400;-58
2022/06/27 03:16:19;;;;;;;4.97;1.90;;;17.60;99.90;;;;;;4964828;28;20394;-58
2022/06/27 03:18:46;;;;;;;6.20;2.33;;;17.60;99.90;;;;;;4969099;28;20733;-58
2022/06/27 03:21:11;;;;;;;4.97;1.92;;;17.60;99.90;;;;;;4968639;28;20492;-58
2022/06/27 03:23:38;;;;;;;5.20;1.70;;;17.50;99.90;;;;;;4969181;28;20514;-58
2022/06/27 03:26:04;;;;;;;6.18;2.30;;;17.60;99.90;;;;;;4967238;28;20403;-57
2022/06/27 03:28:30;;;;;;;6.95;2.25;;;17.60;99.90;;;;;;4967579;28;20520;-58
2022/06/27 03:30:56;;;;;;;5.13;1.70;;;17.50;99.90;;;;;;4969121;28;20471;-58
2022/06/27 03:33:22;;;;;;;5.47;2.00;;;17.60;99.90;;;;;;4968053;28;20503;-58
2022/06/27 03:35:47;;;;;;;4.60;1.65;;;17.50;99.90;;;;;;4969030;28;20801;-57
2022/06/27 03:38:13;;;;;;;6.50;1.90;;;17.60;99.90;;;;;;4968142;28;20403;-57
2022/06/27 03:40:39;;;;;;;6.90;2.00;;;17.80;99.90;;;;;;4968959;28;20405;-57
2022/06/27 03:43:05;;;;;;;5.55;2.00;;;17.80;99.90;;;;;;4968207;28;20869;-58
2022/06/27 03:45:31;;;;;;;6.07;2.57;;;17.70;99.90;;;;;;4969289;28;20543;-58
2022/06/27 03:47:59;;;;;;;7.40;2.30;;;17.70;99.90;;;;;;4968851;28;20515;-58
2022/06/27 03:50:26;;;;;;;6.87;2.47;;;17.70;99.90;;;;;;4968586;28;20499;-57
2022/06/27 03:52:53;;;;;;;7.72;2.75;;;17.70;99.90;;;;;;4968869;28;20393;-58
2022/06/27 03:55:19;;;;;;;7.20;2.78;;;17.70;99.90;;;;;;4966144;28;20404;-58
2022/06/27 03:57:58;;;;;;;7.05;2.65;;;17.80;99.90;;;;;;4968740;28;20419;-60
2022/06/27 04:00:32;;;;;;;6.22;2.67;;;17.80;99.90;;;;;;4972346;28;20388;-57
2022/06/27 04:02:59;;;;;;;6.20;2.50;;;17.80;99.90;;;;;;4971962;28;20873;-53
2022/06/27 04:05:24;;;;;;;6.73;2.37;;;18.00;99.90;;;;;;4972513;28;20498;-58
2022/06/27 04:07:50;;;;;;;8.05;2.22;;;18.10;99.90;;;;;;4972058;28;20475;-57
2022/06/27 04:10:16;;;;;;;7.50;2.43;;;18.20;99.90;;;;;;4971608;28;20419;-58
2022/06/27 04:12:42;;;;;;;5.70;2.40;;;18.30;99.90;;;;;;4972615;28;20408;-57
2022/06/27 04:15:09;;;;;;;5.82;2.40;;;18.30;99.90;;;;;;4971489;28;20475;-59
2022/06/27 04:17:35;;;;;;;10.18;2.90;;;18.20;99.90;;;;;;4972967;28;20396;-58
2022/06/27 04:20:01;;;;;;;6.10;2.70;;;18.20;99.90;;;;;;4970542;28;20806;-52
2022/06/27 04:22:28;;;;;;;8.00;2.85;;;18.10;99.90;;;;;;4970150;28;20428;-56
2022/06/27 04:24:54;;;;;;;7.32;2.45;;;18.00;99.90;;;;;;4972309;28;20738;-57
2022/06/27 04:27:20;;;;;;;5.85;2.60;;;18.00;99.90;;;;;;4971278;28;20447;-56
2022/06/27 04:29:48;;;;;;;7.00;2.50;;;18.00;99.90;;;;;;4970896;28;20408;-57
2022/06/27 04:32:14;;;;;;;5.70;2.60;;;18.00;99.90;;;;;;4970831;28;20408;-57
2022/06/27 04:34:40;;;;;;;5.72;2.30;;;18.00;99.90;;;;;;4971651;28;20396;-57
2022/06/27 04:37:06;;;;;;;7.50;2.75;;;18.20;99.90;;;;;;4971727;28;20940;-58
2022/06/27 04:39:32;;;;;;;6.78;2.58;;;18.30;99.90;;;;;;4972798;28;20742;-58
2022/06/27 04:41:58;;;;;;;7.60;2.70;;;18.30;99.90;;;;;;4972233;28;20546;-58
2022/06/27 04:44:24;;;;;;;6.55;2.70;;;18.50;99.90;;;;;;4970045;28;20408;-57
2022/06/27 04:46:49;;;;;;;9.50;3.40;;;18.50;99.90;;;;;;4971968;28;20404;-57
2022/06/27 04:49:19;;;;;;;10.35;3.47;;;18.60;99.90;;;;;;4971202;28;20446;-57
2022/06/27 04:51:49;;;;;;;7.70;3.20;;;18.80;99.90;;;;;;4967760;28;20789;-58
2022/06/27 04:54:16;;;;;;;7.35;3.20;;;18.90;99.90;;;;;;4970397;28;20408;-57
2022/06/27 04:56:43;;;;;;;9.15;2.90;;;19.00;99.90;;;;;;4970491;28;20657;-56
2022/06/27 04:59:09;;;;;;;9.32;3.10;;;19.00;99.90;;;;;;4970816;28;20408;-57
2022/06/27 05:01:36;;;;;;;7.70;3.10;;;19.10;99.90;;;;;;4970223;28;20400;-52
2022/06/27 05:04:01;;;;;;;5.82;2.60;;;19.20;99.90;;;;;;4971047;28;20665;-52
2022/06/27 05:06:27;;;;;;;7.47;2.80;;;19.30;99.90;;;;;;4971655;28;20420;-53
2022/06/27 05:08:53;;;;;;;10.88;3.00;;;19.60;99.90;;;;;;4963767;28;20772;-52
2022/06/27 05:11:18;;;;;;;7.57;2.70;;;19.70;99.90;;;;;;4967665;28;20408;-52
2022/06/27 05:13:44;;;;;;;8.00;2.40;;;20.00;99.90;;;;;;4969840;28;20435;-52
2022/06/27 05:16:09;;;;;;;7.38;2.10;;;20.70;99.90;;;;;;4970099;28;20405;-52
2022/06/27 05:18:35;;;;;;;6.47;2.10;;;21.30;15.60;;;;;;4972201;28;20549;-52
2022/06/27 05:21:01;;;;;;;15.10;4.20;;;21.60;1.00;;;;;;4969144;28;20424;-52
2022/06/27 05:23:26;;;;;;;10.17;2.40;;;21.60;1.00;;;;;;4971231;28;20405;-52
2022/06/27 05:25:52;;;;;;;7.10;2.10;;;21.20;1.00;;;;;;4971889;28;20761;-52
2022/06/27 05:28:17;;;;;;;6.70;1.70;;;20.80;1.00;;;;;;4970776;28;20424;-52
2022/06/27 05:30:43;;;;;;;6.60;1.90;;;20.40;98.00;;;;;;4970383;28;20411;-52
2022/06/27 05:33:09;;;;;;;7.45;1.88;;;20.40;99.90;;;;;;4971251;28;20380;-52
2022/06/27 05:35:34;;;;;;;6.38;1.80;;;20.50;99.90;;;;;;4971893;28;20447;-52
2022/06/27 05:38:00;;;;;;;6.13;1.73;;;20.70;94.30;;;;;;4971259;28;20459;-52
2022/06/27 05:40:27;;;;;;;6.18;1.50;;;20.70;80.00;;;;;;4970633;28;20739;-52
2022/06/27 05:42:54;;;;;;;6.67;1.70;;;20.60;27.70;;;;;;4971521;28;20916;-52
2022/06/27 05:45:21;;;;;;;5.90;1.80;;;20.60;40.80;;;;;;4970561;28;20404;-52
2022/06/27 05:47:47;;;;;;;6.53;2.07;;;20.50;75.70;;;;;;4971405;28;20416;-52
2022/06/27 05:50:13;;;;;;;5.50;1.90;;;20.50;71.90;;;;;;4962572;28;20498;-52
2022/06/27 05:52:40;;;;;;;5.70;1.63;;;20.40;99.90;;;;;;4971083;28;20404;-52
2022/06/27 05:55:07;;;;;;;6.68;1.60;;;20.60;99.90;;;;;;4961699;28;20400;-53
2022/06/27 05:57:33;;;;;;;5.90;1.42;;;21.30;99.90;;;;;;4971279;28;20841;-52
2022/06/27 05:59:58;;;;;;;6.00;1.45;;;22.00;1.00;;;;;;4968413;28;20419;-52
2022/06/27 06:02:27;;;;;;;7.80;1.50;;;21.90;1.00;;;;;;4966871;28;20991;-53
2022/06/27 06:04:53;;;;;;;5.60;1.50;;;21.50;1.00;;;;;;4965145;28;20793;-60
2022/06/27 06:07:22;;;;;;;8.20;1.55;;;21.20;1.00;;;;;;4959167;28;20388;-53
2022/06/27 06:09:49;;;;;;;5.50;1.48;;;20.90;1.00;;;;;;4959693;28;20396;-53
2022/06/27 06:12:16;;;;;;;5.60;1.60;;;20.60;1.00;;;;;;4970057;28;20425;-52
2022/06/27 06:14:43;;;;;;;5.38;1.60;;;20.30;47.80;;;;;;4958739;28;20398;-52
2022/06/27 06:17:09;;;;;;;5.10;1.60;;;20.30;99.90;;;;;;4955404;28;20474;-52
2022/06/27 06:19:35;;;;;;;5.63;1.70;;;20.40;54.10;;;;;;4960721;28;20423;-56
2022/06/27 06:22:01;;;;;;;5.07;1.40;;;20.40;95.80;;;;;;4964663;28;20390;-55
2022/06/27 06:24:27;;;;;;;6.15;1.80;;;20.40;29.80;;;;;;4951254;28;20916;-52
2022/06/27 06:26:53;;;;;;;5.77;1.53;;;20.30;91.70;;;;;;4965056;28;20757;-52
2022/06/27 06:29:21;;;;;;;5.32;1.70;;;20.30;99.90;;;;;;4967474;28;20450;-53
2022/06/27 06:31:48;;;;;;;6.43;1.80;;;20.30;99.90;;;;;;4954335;28;20402;-53
2022/06/27 06:34:14;;;;;;;5.20;1.75;;;20.40;98.30;;;;;;4963872;28;20396;-52
2022/06/27 06:36:41;;;;;;;5.03;1.50;;;20.70;99.90;;;;;;4970911;28;20873;-52
2022/06/27 06:39:07;;;;;;;6.07;1.65;;;21.00;6.90;;;;;;4970026;28;20435;-53
2022/06/27 06:41:35;;;;;;;7.30;1.90;;;21.40;1.00;;;;;;4971002;28;20392;-52
2022/06/27 06:44:00;;;;;;;5.32;1.75;;;21.30;1.00;;;;;;4970515;28;20792;-52
2022/06/27 06:46:27;;;;;;;8.45;1.90;;;20.90;1.00;;;;;;4968357;28;20403;-52
2022/06/27 06:49:02;;;;;;;5.60;1.80;;;20.80;1.00;;;;;;4960267;28;20532;-52
2022/06/27 06:51:28;;;;;;;5.10;1.80;;;20.70;1.00;;;;;;4950807;28;20465;-52
2022/06/27 06:53:54;;;;;;;5.55;2.10;;;20.60;1.00;;;;;;4951496;28;20826;-52
2022/06/27 06:56:20;;;;;;;7.40;2.30;;;20.30;4.40;;;;;;4950908;29;20397;-52
2022/06/27 06:58:46;;;;;;;5.50;1.80;;;20.60;13.70;;;;;;4951463;28;20471;-52
2022/06/27 07:01:11;;;;;;;5.80;2.33;;;20.60;1.40;;;;;;4950561;29;20832;-52
2022/06/27 07:03:38;;;;;;;6.30;2.70;;;20.70;1.00;;;;;;4951541;29;20470;-52
2022/06/27 07:06:05;;;;;;;5.78;2.40;;;20.40;1.00;;;;;;4951004;28;20441;-51
2022/06/27 07:08:31;;;;;;;6.18;2.83;;;20.00;54.20;;;;;;4950854;28;20413;-52
2022/06/27 07:10:58;;;;;;;6.30;2.80;;;20.10;99.90;;;;;;4951239;28;20721;-51
2022/06/27 07:13:24;;;;;;;5.50;2.60;;;20.10;99.90;;;;;;4954640;28;21000;-52
2022/06/27 07:15:51;;;;;;;9.10;2.70;;;20.10;99.90;;;;;;4965037;28;20452;-52
2022/06/27 07:18:17;;;;;;;6.55;3.15;;;20.10;99.90;;;;;;4965213;28;20411;-52
2022/06/27 07:20:43;;;;;;;7.60;3.30;;;20.10;99.90;;;;;;4970421;28;20511;-52
2022/06/27 07:23:10;;;;;;;6.97;2.95;;;20.00;99.90;;;;;;4969475;28;20392;-52
2022/06/27 07:25:36;;;;;;;7.15;3.50;;;20.00;99.90;;;;;;4970664;28;20388;-53
2022/06/27 07:28:03;;;;;;;7.35;3.90;;;20.20;99.90;;;;;;4970006;28;20471;-53
2022/06/27 07:30:29;;;;;;;7.93;3.30;;;20.50;99.90;;;;;;4969771;28;20420;-53
2022/06/27 07:32:55;;;;;;;6.70;3.43;;;20.60;99.90;;;;;;4972344;28;20429;-53
2022/06/27 07:35:22;;;;;;;6.03;2.87;;;20.70;99.90;;;;;;4973382;28;20400;-53
2022/06/27 07:37:48;;;;;;;6.70;3.20;;;20.70;93.40;;;;;;4974138;28;20749;-53
2022/06/27 07:40:19;;;;;;;6.00;2.90;;;20.90;67.40;;;;;;4973395;28;20436;-53
2022/06/27 07:42:46;;;;;;;7.10;3.25;;;21.10;1.00;;;;;;4974041;28;20391;-53
2022/06/27 07:45:14;;;;;;;5.90;2.75;;;21.10;1.00;;;;;;4967146;28;20392;-53
2022/06/27 07:47:42;;;;;;;6.80;3.30;;;20.90;1.00;;;;;;4960174;28;20421;-53
2022/06/27 07:50:09;;;;;;;5.90;3.10;;;20.70;1.00;;;;;;4973292;28;20818;-53
2022/06/27 07:53:11;;;;;;;7.28;3.33;;;20.80;1.40;;;;;;4973665;28;20388;-52
2022/06/27 07:55:22;;;;;;;6.40;2.90;;;20.80;1.00;;;;;;4972665;28;20422;-53
2022/06/27 07:57:48;;;;;;;5.90;2.75;;;20.80;6.80;;;;;;4973796;28;20400;-52
2022/06/27 08:00:14;;;;;;;6.20;3.13;;;20.80;86.90;;;;;;4973048;28;20387;-52
2022/06/27 08:02:41;;;;;;;7.00;2.95;;;20.90;34.40;;;;;;4973617;28;20442;-52
2022/06/27 08:05:07;;;;;;;7.72;2.70;;;20.90;1.00;;;;;;4973058;28;20455;-52
2022/06/27 08:07:33;;;;;;;6.57;2.50;;;20.70;1.00;;;;;;4973449;28;20897;-52
2022/06/27 08:09:58;;;;;;;7.40;3.00;;;20.60;15.10;;;;;;4973295;28;20443;-52
2022/06/27 08:12:25;;;;;;;5.90;2.70;;;20.60;99.90;;;;;;4972830;28;20380;-52
2022/06/27 08:14:51;;;;;;;6.32;2.80;;;20.80;55.50;;;;;;4963437;28;20820;-52
2022/06/27 08:17:18;;;;;;;6.97;2.40;;;21.00;28.30;;;;;;4972203;28;20707;-52
2022/06/27 08:19:44;;;;;;;5.90;2.50;;;21.40;1.00;;;;;;4972954;28;20408;-53
2022/06/27 08:22:11;;;;;;;6.37;2.50;;;22.00;1.00;;;;;;4972170;28;20417;-54
2022/06/27 08:24:37;;;;;;;6.90;3.10;;;22.60;1.00;;;;;;4972094;28;20396;-53
2022/06/27 08:27:04;;;;;;;7.70;2.40;;;22.80;99.90;;;;;;4973082;28;20479;-53
2022/06/27 08:29:32;;;;;;;5.70;2.30;;;22.60;1.00;;;;;;4972681;28;20424;-53
2022/06/27 08:32:00;;;;;;;7.47;3.05;;;22.20;99.90;;;;;;4973073;28;20384;-53
2022/06/27 08:34:26;;;;;;;8.73;2.70;;;21.90;99.90;;;;;;4972065;28;20459;-53
2022/06/27 08:36:52;;;;;;;5.90;2.60;;;21.90;99.90;;;;;;4972942;28;20392;-53
2022/06/27 08:39:18;;;;;;;5.80;2.80;;;21.70;99.90;;;;;;4972038;28;20393;-53
2022/06/27 08:41:47;;;;;;;5.50;2.60;;;21.40;1.00;;;;;;4970787;28;20392;-53
2022/06/27 08:44:14;;;;;;;5.70;2.80;;;21.20;1.00;;;;;;4961188;28;20542;-53
2022/06/27 08:46:41;;;;;;;5.97;2.60;;;21.10;1.00;;;;;;4953053;28;20390;-53
2022/06/27 08:49:08;;;;;;;6.00;2.40;;;21.40;1.00;;;;;;4965157;28;20432;-53
2022/06/27 08:51:34;;;;;;;8.35;2.58;;;21.60;1.00;;;;;;4972293;28;20388;-53
2022/06/27 08:54:00;;;;;;;5.90;2.50;;;22.20;1.00;;;;;;4972124;28;20504;-53
2022/06/27 08:56:29;;;;;;;7.20;2.30;;;22.50;99.90;;;;;;4971418;28;20391;-53
2022/06/27 08:58:58;;;;;;;5.43;2.43;;;22.40;99.90;;;;;;4972330;28;20393;-53
2022/06/27 09:01:26;;;;;;;5.75;2.35;;;22.10;99.90;;;;;;4971361;28;20865;-53
2022/06/27 09:04:00;;;;;;;5.85;2.60;;;21.90;99.90;;;;;;4972089;28;20854;-53
2022/06/27 09:06:51;;;;;;;5.93;2.30;;;21.80;99.90;;;;;;4971144;28;20387;-53
2022/06/27 09:09:17;;;;;;;5.20;2.20;;;21.60;1.00;;;;;;4970846;28;20404;-53
2022/06/27 09:11:46;;;;;;;6.07;2.40;;;21.80;1.00;;;;;;4966151;28;20968;-53
2022/06/27 09:14:50;;;;;;;5.80;2.70;;;21.90;1.00;;;;;;4966221;28;20447;-53
2022/06/27 09:17:16;;;;;;;6.40;2.57;;;21.70;1.00;;;;;;4911168;29;20406;-53
2022/06/27 09:19:51;;;;;;;5.82;2.38;;;21.60;1.00;;;;;;4911916;29;20405;-53
2022/06/27 09:22:19;;;;;;;5.90;2.50;;;21.40;1.00;;;;;;4932297;28;20942;-53
2022/06/27 09:25:05;;;;;;;6.28;2.47;;;21.20;1.00;;;;;;4952300;28;20392;-53
2022/06/27 09:27:46;;;;;;;6.88;3.20;;;21.30;1.00;;;;;;4951814;28;20429;-53
2022/06/27 09:30:21;;;;;;;6.20;2.60;;;21.20;1.00;;;;;;4951794;28;20902;-53
2022/06/27 09:32:49;;;;;;;6.53;3.10;;;21.20;1.00;;;;;;4967332;28;20810;-53
2022/06/27 09:35:22;;;;;;;6.10;2.80;;;21.20;1.00;;;;;;4951757;28;20402;-53
2022/06/27 09:38:02;;;;;;;10.82;3.40;;;21.20;1.00;;;;;;4952350;28;20412;-53
2022/06/27 09:40:30;;;;;;;8.27;3.42;;;21.20;1.00;;;;;;4956781;28;20388;-53
2022/06/27 09:42:57;;;;;;;6.93;3.00;;;21.10;1.00;;;;;;4956534;28;20409;-53
2022/06/27 09:45:24;;;;;;;8.07;3.47;;;21.10;1.00;;;;;;4951424;28;20448;-53
2022/06/27 09:47:57;;;;;;;7.57;3.95;;;21.20;1.00;;;;;;4954550;28;20416;-53
2022/06/27 09:50:23;;;;;;;7.75;3.55;;;21.50;1.00;;;;;;4970522;28;20401;-53
2022/06/27 09:52:51;;;;;;;7.70;3.97;;;21.80;1.00;;;;;;4971238;28;20392;-53
2022/06/27 09:55:20;;;;;;;6.30;3.50;;;22.50;66.80;;;;;;4969767;28;20399;-53
2022/06/27 09:57:46;;;;;;;6.50;3.20;;;23.50;99.90;;;;;;4969879;28;20396;-53
2022/06/27 10:00:13;;;;;;;6.20;3.20;;;24.60;99.90;;;;;;4970247;28;21030;-53
2022/06/27 10:02:39;;;;;;;6.40;2.80;;;26.40;99.90;;;;;;4971235;28;20407;-53
2022/06/27 10:05:05;;;;;;;6.97;3.00;;;26.70;23.10;;;;;;4970918;28;20392;-53
2022/06/27 10:07:32;;;;;;;8.43;3.47;;;27.50;99.90;;;;;;4970317;28;20388;-54
2022/06/27 10:09:57;;;;;;;7.30;3.00;;;28.30;99.90;;;;;;4964550;28;20404;-54
2022/06/27 10:12:23;;;;;;;6.90;3.00;;;29.00;99.90;;;;;;4951182;29;20486;-54
2022/06/27 10:15:10;;;;;;;7.00;2.70;;;29.20;50.00;;;;;;4967071;28;20388;-54
2022/06/27 10:17:49;;;;;;;6.80;2.80;;;28.60;25.60;;;;;;4970630;28;20392;-54
2022/06/27 10:20:20;;;;;;;7.30;2.72;;;27.60;56.20;;;;;;4970131;28;20412;-54
2022/06/27 10:23:09;;;;;;;6.28;2.30;;;26.00;31.70;;;;;;4970795;28;20405;-53
2022/06/27 10:25:40;;;;;;;7.43;3.28;;;24.70;64.30;;;;;;4970079;28;20793;-53
2022/06/27 10:28:09;;;;;;;7.20;2.90;;;24.00;1.00;;;;;;4970406;28;20492;-53
2022/06/27 10:30:42;;;;;;;6.20;3.00;;;23.60;99.90;;;;;;4970526;28;20471;-53
2022/06/27 10:33:26;;;;;;;7.27;3.27;;;23.40;99.90;;;;;;4970742;28;20523;-53
2022/06/27 10:38:53;;;;;;;7.35;3.50;;;23.30;99.90;;;;;;4963429;28;20518;-53
2022/06/27 10:41:19;;;;;;;7.93;3.30;;;23.30;99.90;;;;;;4949408;29;20390;-53
2022/06/27 10:43:57;;;;;;;5.90;2.77;;;23.20;99.90;;;;;;4951147;29;20390;-53
2022/06/27 10:46:22;;;;;;;6.70;2.72;;;23.20;18.10;;;;;;4950645;28;20470;-53
2022/06/27 10:48:54;;;;;;;7.10;2.50;;;23.10;54.50;;;;;;4975943;28;20994;-53
2022/06/27 10:51:30;;;;;;;5.70;2.50;;;23.40;1.00;;;;;;4970050;28;20432;-53
2022/06/27 10:54:04;;;;;;;7.18;2.60;;;23.60;1.00;;;;;;4970680;28;20388;-53
2022/06/27 10:56:34;;;;;;;8.15;3.10;;;24.10;1.00;;;;;;4969687;28;20384;-55
2022/06/27 10:59:02;;;;;;;6.70;2.72;;;24.30;1.00;;;;;;4970349;28;20388;-54
2022/06/27 11:01:28;;;;;;;6.40;2.90;;;24.40;1.00;;;;;;4969808;28;20648;-54
2022/06/27 11:03:55;;;;;;;6.60;2.60;;;24.20;1.00;;;;;;4970396;28;20427;-54
2022/06/27 11:06:21;;;;;;;6.63;2.22;;;24.00;1.00;;;;;;4964595;28;20394;-53
2022/06/27 11:08:48;;;;;;;5.97;2.28;;;24.50;99.90;;;;;;4959143;28;20465;-54
2022/06/27 11:11:19;;;;;;;5.93;2.30;;;24.80;99.90;;;;;;4950087;28;20905;-54
2022/06/27 11:13:52;;;;;;;6.40;2.35;;;24.80;99.90;;;;;;4958879;28;20404;-54
2022/06/27 11:16:20;;;;;;;5.70;2.10;;;24.80;99.90;;;;;;4968807;28;20515;-53
2022/06/27 11:18:54;;;;;;;6.28;2.22;;;24.80;99.90;;;;;;4969366;28;21021;-54
2022/06/27 11:21:22;;;;;;;5.90;2.20;;;24.70;99.90;;;;;;4968430;28;20890;-54
2022/06/27 11:23:52;;;;;;;6.20;2.10;;;24.60;99.90;;;;;;4966197;28;20415;-54
2022/06/27 11:26:26;;;;;;;6.80;2.70;;;24.40;99.90;;;;;;4964364;28;20416;-54
2022/06/27 11:34:21;;;;;;;5.90;2.40;;;23.90;99.90;;;;;;4966625;28;20908;-53
2022/06/27 11:36:47;;;;;;;7.30;2.60;;;24.00;99.90;;;;;;4964208;28;20430;-53
2022/06/27 11:39:16;;;;;;;6.50;2.70;;;24.30;99.90;;;;;;4968657;28;20757;-53
2022/06/27 11:41:42;;;;;;;6.90;2.85;;;24.50;99.90;;;;;;4967168;28;20522;-53
2022/06/27 11:44:10;;;;;;;7.63;3.00;;;24.90;99.90;;;;;;4968121;28;20813;-53
2022/06/27 11:46:45;;;;;;;5.95;2.80;;;24.90;99.90;;;;;;4967377;28;20869;-53
2022/06/27 11:49:31;;;;;;;7.13;3.30;;;24.30;99.90;;;;;;4954310;28;20452;-52
2022/06/27 11:52:02;;;;;;;6.90;3.20;;;23.70;99.90;;;;;;4960824;28;20404;-53
2022/06/27 11:54:37;;;;;;;6.60;2.65;;;23.60;99.90;;;;;;4962048;28;20419;-53
2022/06/27 11:57:03;;;;;;;7.40;3.10;;;23.40;99.90;;;;;;4963473;28;20404;-53
2022/06/27 11:59:30;;;;;;;7.20;3.20;;;23.20;99.90;;;;;;4968601;28;20531;-52
2022/06/27 12:02:01;;;;;;;7.63;3.30;;;23.10;99.90;;;;;;4966850;28;20820;-52
2022/06/27 12:04:30;;;;;;;7.30;2.97;;;22.90;99.90;;;;;;4965267;28;20417;-52
2022/06/27 12:07:04;;;;;;;7.25;2.72;;;22.70;99.90;;;;;;4965884;28;20415;-53
2022/06/27 12:09:30;;;;;;;7.72;3.40;;;22.60;1.00;;;;;;4966921;28;20498;-52
2022/06/27 12:12:07;;;;;;;7.00;3.20;;;22.70;1.00;;;;;;4969008;28;20457;-53
2022/06/27 12:14:44;;;;;;;9.23;3.30;;;23.00;1.00;;;;;;4961715;28;20986;-52
2022/06/27 12:17:10;;;;;;;7.80;3.60;;;23.30;1.00;;;;;;4963063;28;20439;-52
2022/06/27 12:19:35;;;;;;;7.30;3.85;;;23.70;99.90;;;;;;4969167;28;20419;-52
2022/06/27 12:22:01;;;;;;;8.83;3.73;;;23.00;99.90;;;;;;4970087;28;20797;-53
2022/06/27 12:24:27;;;;;;;7.50;3.10;;;23.00;1.00;;;;;;4971503;28;20471;-53
2022/06/27 12:26:52;;;;;;;7.07;2.90;;;22.80;1.00;;;;;;4968783;28;20828;-53
2022/06/27 12:29:19;;;;;;;9.48;3.40;;;22.70;1.00;;;;;;4952543;28;20827;-53
2022/06/27 12:31:45;;;;;;;7.00;3.10;;;22.60;1.00;;;;;;4953824;28;20390;-54
2022/06/27 12:34:11;;;;;;;7.20;3.10;;;22.50;1.00;;;;;;4958239;28;20433;-53
2022/06/27 12:36:38;;;;;;;7.63;2.92;;;22.00;1.00;;;;;;4972354;28;20401;-53
2022/06/27 12:39:05;;;;;;;6.68;2.40;;;22.50;1.00;;;;;;4972665;28;20384;-52
2022/06/27 12:41:31;;;;;;;5.80;2.35;;;22.50;1.00;;;;;;4971821;28;20388;-53
2022/06/27 12:43:57;;;;;;;6.07;2.40;;;22.50;1.00;;;;;;4972456;28;20542;-53
2022/06/27 12:46:24;;;;;;;7.47;2.40;;;22.50;1.00;;;;;;4971812;28;20384;-53
2022/06/27 12:48:50;;;;;;;7.05;2.20;;;22.50;99.90;;;;;;4972036;28;20891;-53
2022/06/27 12:51:16;;;;;;;6.50;2.50;;;22.50;99.90;;;;;;4970330;28;20547;-53
2022/06/27 12:53:42;;;;;;;5.72;2.25;;;22.50;99.90;;;;;;4972736;28;20964;-53
2022/06/27 12:56:08;;;;;;;5.97;2.08;;;22.60;99.90;;;;;;4962742;28;20752;-53
2022/06/27 12:58:34;;;;;;;7.00;2.10;;;22.80;99.90;;;;;;4951767;28;20496;-53
2022/06/27 13:01:00;;;;;;;5.80;1.92;;;22.90;99.90;;;;;;4966453;28;20400;-53
2022/06/27 13:03:26;;;;;;;5.80;1.90;;;23.10;99.90;;;;;;4966289;28;20901;-53